createdAt,value
2018-09-02T00:01:43.939Z,99049.73
2018-09-02T00:03:56.171Z,99051.88
2018-09-02T00:06:08.403Z,99049.48
2018-09-02T00:08:20.627Z,99051.97
2018-09-02T00:10:32.945Z,99050.13
2018-09-02T00:12:45.232Z,99049.21
2018-09-02T00:14:57.511Z,99050.13
2018-09-02T00:17:10.922Z,99045.59
2018-09-02T00:19:23.102Z,99042.83
2018-09-02T00:21:35.268Z,99042.57
2018-09-02T00:23:47.482Z,99042.09
2018-09-02T00:25:59.840Z,99043.14
2018-09-02T00:28:12.058Z,99044.44
2018-09-02T00:30:24.275Z,99044.27
2018-09-02T00:32:36.767Z,99038.67
2018-09-02T00:34:49.018Z,99038.66
2018-09-02T00:37:01.257Z,99037.42
2018-09-02T00:39:13.470Z,99042.55
2018-09-02T00:41:25.662Z,99040.49
2018-09-02T00:43:37.905Z,99033.78
2018-09-02T00:45:50.756Z,99037.59
2018-09-02T00:48:03.015Z,99033.52
2018-09-02T00:50:15.222Z,99038.02
2018-09-02T00:52:27.377Z,99037.17
2018-09-02T00:54:39.567Z,99037.87
2018-09-02T00:56:51.819Z,99039.39
2018-09-02T00:59:04.064Z,99039.03
2018-09-02T01:01:16.298Z,99040.83
2018-09-02T01:03:28.491Z,99031.98
2018-09-02T01:05:40.706Z,99034.13
2018-09-02T01:07:54.572Z,99033.08
2018-09-02T01:10:06.841Z,99032.04
2018-09-02T01:12:19.075Z,99031.17
2018-09-02T01:14:31.291Z,99034.48
2018-09-02T01:16:43.486Z,99030.47
2018-09-02T01:18:55.655Z,99034.88
2018-09-02T01:21:07.887Z,99033.63
2018-09-02T01:23:20.065Z,99032.20
2018-09-02T01:25:32.290Z,99032.31
2018-09-02T01:27:44.461Z,99028.17
2018-09-02T01:29:56.668Z,99028.59
2018-09-02T01:32:08.890Z,99022.25
2018-09-02T01:34:21.174Z,99030.95
2018-09-02T01:36:33.390Z,99023.35
2018-09-02T01:38:45.594Z,99024.39
2018-09-02T01:40:57.761Z,99021.77
2018-09-02T01:43:09.967Z,99021.21
2018-09-02T01:45:22.255Z,99022.94
2018-09-02T01:47:34.583Z,99023.95
2018-09-02T01:49:46.791Z,99022.26
2018-09-02T01:51:59.000Z,99019.20
2018-09-02T01:54:11.211Z,99018.78
2018-09-02T01:56:23.408Z,99015.14
2018-09-02T01:58:35.634Z,99013.48
2018-09-02T02:00:47.807Z,99010.02
2018-09-02T02:03:00.055Z,99007.81
2018-09-02T02:05:12.237Z,99001.06
2018-09-02T02:07:24.422Z,99002.84
2018-09-02T02:09:36.639Z,99000.44
2018-09-02T02:11:48.819Z,98999.19
2018-09-02T02:14:01.029Z,98999.60
2018-09-02T02:16:13.237Z,99000.84
2018-09-02T02:18:25.445Z,99000.16
2018-09-02T02:20:37.676Z,98994.63
2018-09-02T02:22:49.936Z,98991.89
2018-09-02T02:25:02.262Z,98994.66
2018-09-02T02:27:14.463Z,98994.87
2018-09-02T02:29:26.637Z,98988.64
2018-09-02T02:31:38.827Z,98985.40
2018-09-02T02:33:51.094Z,98986.70
2018-09-02T02:36:03.334Z,98987.52
2018-09-02T02:38:15.516Z,98983.79
2018-09-02T02:40:27.719Z,98985.10
2018-09-02T02:42:39.918Z,98979.45
2018-09-02T02:44:52.146Z,98982.92
2018-09-02T02:47:04.399Z,98982.42
2018-09-02T02:49:16.586Z,98981.53
2018-09-02T02:51:28.779Z,98981.26
2018-09-02T02:53:40.983Z,98971.73
2018-09-02T02:55:53.202Z,98971.53
2018-09-02T02:58:05.448Z,98971.17
2018-09-02T03:00:17.639Z,98969.95
2018-09-02T03:02:29.850Z,98968.64
2018-09-02T03:04:42.058Z,98967.92
2018-09-02T03:06:54.255Z,98963.61
2018-09-02T03:09:07.626Z,98965.30
2018-09-02T03:11:19.831Z,98962.21
2018-09-02T03:13:32.057Z,98957.86
2018-09-02T03:15:44.254Z,98962.59
2018-09-02T03:17:56.467Z,98957.97
2018-09-02T03:20:08.642Z,98958.17
2018-09-02T03:22:20.855Z,98954.73
2018-09-02T03:24:33.039Z,98956.52
2018-09-02T03:26:45.330Z,98964.57
2018-09-02T03:28:57.539Z,98962.91
2018-09-02T03:31:09.759Z,98962.52
2018-09-02T03:33:21.977Z,98961.05
2018-09-02T03:35:34.163Z,98957.87
2018-09-02T03:37:46.399Z,98956.92
2018-09-02T03:39:58.630Z,98946.97
2018-09-02T03:42:10.848Z,98951.94
2018-09-02T03:44:23.051Z,98951.75
2018-09-02T03:46:35.266Z,98949.13
2018-09-02T03:48:47.511Z,98951.75
2018-09-02T03:50:59.740Z,98946.16
2018-09-02T03:53:11.956Z,98940.77
2018-09-02T03:55:24.207Z,98948.62
2018-09-02T03:57:36.419Z,98944.09
2018-09-02T03:59:48.624Z,98947.34
2018-09-02T04:02:00.823Z,98943.90
2018-09-02T04:04:13.039Z,98946.00
2018-09-02T04:06:25.245Z,98945.73
2018-09-02T04:08:37.430Z,98950.33
2018-09-02T04:10:49.644Z,98948.66
2018-09-02T04:13:01.863Z,98945.30
2018-09-02T04:15:14.091Z,98949.22
2018-09-02T04:17:26.311Z,98945.18
2018-09-02T04:19:38.549Z,98946.05
2018-09-02T04:21:50.763Z,98945.18
2018-09-02T04:24:03.187Z,98941.48
2018-09-02T04:26:15.402Z,98940.42
2018-09-02T04:28:27.626Z,98935.73
2018-09-02T04:30:39.870Z,98938.08
2018-09-02T04:32:52.094Z,98935.34
2018-09-02T04:35:04.290Z,98936.09
2018-09-02T04:37:16.523Z,98939.50
2018-09-02T04:39:28.690Z,98935.46
2018-09-02T04:41:40.930Z,98938.12
2018-09-02T04:43:53.170Z,98934.20
2018-09-02T04:46:05.450Z,98930.16
2018-09-02T04:48:17.699Z,98933.20
2018-09-02T04:50:29.914Z,98932.09
2018-09-02T04:52:42.311Z,98937.13
2018-09-02T04:54:54.540Z,98934.72
2018-09-02T04:57:06.758Z,98928.94
2018-09-02T04:59:18.962Z,98935.31
2018-09-02T05:01:31.132Z,98934.67
2018-09-02T05:03:43.342Z,98940.74
2018-09-02T05:05:55.594Z,98933.64
2018-09-02T05:08:07.775Z,98937.97
2018-09-02T05:10:20.026Z,98939.42
2018-09-02T05:12:32.236Z,98939.98
2018-09-02T05:14:44.435Z,98944.73
2018-09-02T05:16:56.614Z,98945.69
2018-09-02T05:19:08.839Z,98950.44
2018-09-02T05:21:21.049Z,98940.09
2018-09-02T05:23:33.249Z,98939.98
2018-09-02T05:25:45.541Z,98940.17
2018-09-02T05:27:57.798Z,98943.66
2018-09-02T05:30:10.067Z,98932.55
2018-09-02T05:32:22.377Z,98942.34
2018-09-02T05:34:34.599Z,98938.78
2018-09-02T05:36:46.863Z,98940.48
2018-09-02T05:38:59.062Z,98940.31
2018-09-02T05:41:11.329Z,98935.37
2018-09-02T05:43:23.574Z,98936.76
2018-09-02T05:45:35.774Z,98932.84
2018-09-02T05:47:48.024Z,98938.17
2018-09-02T05:50:00.199Z,98935.09
2018-09-02T05:52:12.413Z,98936.09
2018-09-02T05:54:24.615Z,98937.79
2018-09-02T05:56:36.867Z,98938.23
2018-09-02T05:58:49.068Z,98943.27
2018-09-02T06:01:01.353Z,98944.21
2018-09-02T06:03:13.558Z,98949.55
2018-09-02T06:05:26.894Z,98944.02
2018-09-02T06:07:39.139Z,98949.97
2018-09-02T06:09:51.335Z,98950.91
2018-09-02T06:12:03.604Z,98955.11
2018-09-02T06:14:15.995Z,98954.92
2018-09-02T06:16:28.216Z,98950.41
2018-09-02T06:18:40.442Z,98953.61
2018-09-02T06:20:52.690Z,98952.66
2018-09-02T06:23:04.962Z,98951.63
2018-09-02T06:25:17.163Z,98952.35
2018-09-02T06:27:29.389Z,98950.29
2018-09-02T06:29:41.615Z,98955.52
2018-09-02T06:31:53.906Z,98949.18
2018-09-02T06:34:06.146Z,98951.01
2018-09-02T06:36:18.813Z,98949.14
2018-09-02T06:38:30.974Z,98954.77
2018-09-02T06:40:43.178Z,98953.66
2018-09-02T06:42:55.389Z,98956.03
2018-09-02T06:45:07.695Z,98953.77
2018-09-02T06:47:19.926Z,98949.22
2018-09-02T06:49:32.147Z,98951.36
2018-09-02T06:51:44.460Z,98956.30
2018-09-02T06:53:56.782Z,98955.20
2018-09-02T06:56:09.068Z,98957.73
2018-09-02T06:58:21.319Z,98962.95
2018-09-02T07:00:33.563Z,98957.92
2018-09-02T07:02:45.775Z,98956.95
2018-09-02T07:04:58.094Z,98958.61
2018-09-02T07:07:10.361Z,98954.73
2018-09-02T07:09:22.523Z,98946.48
2018-09-02T07:11:34.763Z,98957.86
2018-09-02T07:13:46.986Z,98952.11
2018-09-02T07:15:59.229Z,98949.73
2018-09-02T07:18:11.435Z,98951.68
2018-09-02T07:20:23.738Z,98952.91
2018-09-02T07:22:36.051Z,98953.38
2018-09-02T07:24:48.267Z,98951.48
2018-09-02T07:27:00.505Z,98951.48
2018-09-02T07:29:12.731Z,98948.23
2018-09-02T07:31:25.010Z,98948.98
2018-09-02T07:33:37.191Z,98947.83
2018-09-02T07:35:49.479Z,98948.96
2018-09-02T07:38:01.819Z,98950.90
2018-09-02T07:40:14.195Z,98948.11
2018-09-02T07:42:26.401Z,98939.84
2018-09-02T07:44:38.956Z,98948.13
2018-09-02T07:46:51.229Z,98944.14
2018-09-02T07:49:03.578Z,98947.89
2018-09-02T07:51:15.766Z,98953.07
2018-09-02T07:53:28.026Z,98953.61
2018-09-02T07:55:40.298Z,98948.22
2018-09-02T07:57:52.526Z,98948.08
2018-09-02T08:00:06.177Z,98948.13
2018-09-02T08:02:18.423Z,98947.03
2018-09-02T08:04:30.731Z,98949.50
2018-09-02T08:06:42.927Z,98947.92
2018-09-02T08:08:55.165Z,98950.89
2018-09-02T08:11:07.438Z,98952.00
2018-09-02T08:13:19.662Z,98950.52
2018-09-02T08:15:31.870Z,98953.52
2018-09-02T08:17:44.127Z,98949.59
2018-09-02T08:19:56.503Z,98949.05
2018-09-02T08:22:08.742Z,98960.69
2018-09-02T08:24:20.981Z,98956.41
2018-09-02T08:26:33.196Z,98955.45
2018-09-02T08:28:45.488Z,98951.17
2018-09-02T08:30:57.799Z,98954.05
2018-09-02T08:33:10.127Z,98954.68
2018-09-02T08:35:22.273Z,98954.02
2018-09-02T08:37:34.498Z,98951.20
2018-09-02T08:39:46.754Z,98950.57
2018-09-02T08:41:58.994Z,98951.77
2018-09-02T08:44:11.228Z,98952.15
2018-09-02T08:46:23.511Z,98950.98
2018-09-02T08:48:35.748Z,98946.64
2018-09-02T08:50:47.982Z,98948.28
2018-09-02T08:53:00.195Z,98949.73
2018-09-02T08:55:12.406Z,98951.48
2018-09-02T08:57:24.689Z,98951.48
2018-09-02T08:59:36.894Z,98950.50
2018-09-02T09:01:49.208Z,98954.59
2018-09-02T09:04:01.394Z,98954.38
2018-09-02T09:06:13.697Z,98955.54
2018-09-02T09:08:26.157Z,98954.35
2018-09-02T09:10:38.200Z,98956.50
2018-09-02T09:12:50.428Z,98958.91
2018-09-02T09:15:02.681Z,98957.63
2018-09-02T09:17:15.079Z,98960.87
2018-09-02T09:19:27.231Z,98956.31
2018-09-02T09:21:39.553Z,98954.08
2018-09-02T09:23:51.769Z,98951.34
2018-09-02T09:26:04.041Z,98942.44
2018-09-02T09:28:16.260Z,98944.52
2018-09-02T09:30:28.550Z,98943.14
2018-09-02T09:32:40.824Z,98940.72
2018-09-02T09:34:53.039Z,98932.85
2018-09-02T09:37:05.298Z,98929.86
2018-09-02T09:39:17.533Z,98930.16
2018-09-02T09:41:29.810Z,98928.53
2018-09-02T09:43:42.030Z,98923.06
2018-09-02T09:45:54.424Z,98919.34
2018-09-02T09:48:06.677Z,98921.22
2018-09-02T09:50:18.918Z,98921.22
2018-09-02T09:52:31.123Z,98925.89
2018-09-02T09:54:43.815Z,98924.72
2018-09-02T09:56:56.083Z,98926.77
2018-09-02T09:59:08.376Z,98924.30
2018-09-02T10:01:20.615Z,98927.41
2018-09-02T10:03:32.838Z,98929.81
2018-09-02T10:05:45.130Z,98920.99
2018-09-02T10:07:57.407Z,98920.07
2018-09-02T10:10:09.645Z,98922.52
2018-09-02T10:12:21.906Z,98917.88
2018-09-02T10:14:34.189Z,98922.86
2018-09-02T10:16:46.419Z,98923.69
2018-09-02T10:18:58.671Z,98918.84
2018-09-02T10:21:10.917Z,98920.50
2018-09-02T10:23:23.169Z,98917.28
2018-09-02T10:25:35.425Z,98912.78
2018-09-02T10:27:48.021Z,98916.14
2018-09-02T10:30:00.228Z,98917.33
2018-09-02T10:32:12.485Z,98911.81
2018-09-02T10:34:24.737Z,98911.81
2018-09-02T10:36:37.072Z,98915.75
2018-09-02T10:38:49.347Z,98910.98
2018-09-02T10:41:01.590Z,98907.05
2018-09-02T10:43:13.799Z,98913.27
2018-09-02T10:45:26.043Z,98907.58
2018-09-02T10:47:38.271Z,98905.78
2018-09-02T10:49:50.551Z,98893.16
2018-09-02T10:52:02.788Z,98894.83
2018-09-02T10:54:15.004Z,98887.91
2018-09-02T10:56:27.225Z,98885.52
2018-09-02T10:58:39.458Z,98885.66
2018-09-02T11:00:51.691Z,98890.36
2018-09-02T11:03:03.964Z,98887.87
2018-09-02T11:05:16.233Z,98890.88
2018-09-02T11:07:28.442Z,98882.27
2018-09-02T11:09:40.769Z,98885.98
2018-09-02T11:11:53.001Z,98884.67
2018-09-02T11:14:05.559Z,98880.00
2018-09-02T11:16:17.814Z,98880.74
2018-09-02T11:18:30.103Z,98877.77
2018-09-02T11:20:42.415Z,98877.90
2018-09-02T11:22:54.692Z,98870.95
2018-09-02T11:25:06.977Z,98876.45
2018-09-02T11:27:19.191Z,98873.67
2018-09-02T11:29:31.546Z,98874.24
2018-09-02T11:31:43.782Z,98878.17
2018-09-02T11:33:56.888Z,98874.15
2018-09-02T11:36:09.131Z,98865.90
2018-09-02T11:38:21.407Z,98869.38
2018-09-02T11:40:33.718Z,98862.54
2018-09-02T11:42:46.079Z,98859.69
2018-09-02T11:44:58.405Z,98869.31
2018-09-02T11:47:10.551Z,98868.70
2018-09-02T11:49:22.780Z,98867.88
2018-09-02T11:51:35.043Z,98868.83
2018-09-02T11:53:47.317Z,98862.62
2018-09-02T11:55:59.592Z,98868.48
2018-09-02T11:58:11.816Z,98864.49
2018-09-02T12:00:24.096Z,98869.64
2018-09-02T12:02:36.363Z,98868.81
2018-09-02T12:04:48.681Z,98868.07
2018-09-02T12:07:00.960Z,98866.37
2018-09-02T12:09:13.230Z,98854.32
2018-09-02T12:11:25.431Z,98860.14
2018-09-02T12:13:37.677Z,98867.03
2018-09-02T12:15:49.947Z,98868.34
2018-09-02T12:18:02.261Z,98861.92
2018-09-02T12:20:14.459Z,98863.55
2018-09-02T12:22:26.708Z,98870.48
2018-09-02T12:24:38.942Z,98868.17
2018-09-02T12:26:51.191Z,98867.46
2018-09-02T12:29:03.574Z,98872.09
2018-09-02T12:31:15.882Z,98867.33
2018-09-02T12:33:28.188Z,98868.64
2018-09-02T12:35:40.483Z,98866.25
2018-09-02T12:37:52.742Z,98862.70
2018-09-02T12:40:05.034Z,98854.93
2018-09-02T12:42:17.321Z,98852.57
2018-09-02T12:44:29.571Z,98863.53
2018-09-02T12:46:41.831Z,98855.31
2018-09-02T12:48:54.109Z,98859.60
2018-09-02T12:51:06.128Z,98863.41
2018-09-02T12:53:18.437Z,98860.55
2018-09-02T12:55:30.733Z,98858.29
2018-09-02T12:57:42.994Z,98856.98
2018-09-02T12:59:58.467Z,98856.28
2018-09-02T13:02:10.713Z,98850.82
2018-09-02T13:04:23.023Z,98856.06
2018-09-02T13:06:35.279Z,98853.53
2018-09-02T13:08:47.601Z,98853.19
2018-09-02T13:10:59.864Z,98846.28
2018-09-02T13:13:12.080Z,98847.11
2018-09-02T13:15:24.559Z,98849.81
2018-09-02T13:17:36.754Z,98845.44
2018-09-02T13:19:49.016Z,98844.83
2018-09-02T13:22:01.255Z,98836.61
2018-09-02T13:24:13.502Z,98838.47
2018-09-02T13:26:25.822Z,98833.98
2018-09-02T13:28:38.101Z,98828.74
2018-09-02T13:30:50.404Z,98829.28
2018-09-02T13:33:02.726Z,98828.74
2018-09-02T13:35:14.966Z,98828.05
2018-09-02T13:37:27.184Z,98828.42
2018-09-02T13:39:41.981Z,98824.39
2018-09-02T13:41:55.502Z,98825.48
2018-09-02T13:44:08.780Z,98829.89
2018-09-02T13:46:23.448Z,98825.63
2018-09-02T13:48:35.860Z,98831.07
2018-09-02T13:50:48.082Z,98832.27
2018-09-02T13:53:00.302Z,98830.03
2018-09-02T13:55:12.587Z,98824.16
2018-09-02T13:57:24.869Z,98817.41
2018-09-02T13:59:37.191Z,98815.42
2018-09-02T14:01:49.428Z,98810.66
2018-09-02T14:04:01.718Z,98817.81
2018-09-02T14:06:13.948Z,98814.92
2018-09-02T14:08:26.184Z,98814.25
2018-09-02T14:10:38.726Z,98819.16
2018-09-02T14:12:51.056Z,98814.13
2018-09-02T14:15:04.034Z,98820.07
2018-09-02T14:17:16.298Z,98815.20
2018-09-02T14:19:28.715Z,98811.11
2018-09-02T14:21:40.917Z,98811.96
2018-09-02T14:23:53.167Z,98813.74
2018-09-02T14:26:05.471Z,98815.16
2018-09-02T14:28:17.923Z,98812.76
2018-09-02T14:30:30.319Z,98814.66
2018-09-02T14:32:42.643Z,98818.47
2018-09-02T14:34:54.897Z,98806.89
2018-09-02T14:37:07.125Z,98811.76
2018-09-02T14:39:19.384Z,98815.95
2018-09-02T14:41:31.603Z,98821.42
2018-09-02T14:43:43.931Z,98815.09
2018-09-02T14:45:56.110Z,98816.62
2018-09-02T14:48:08.311Z,98813.63
2018-09-02T14:50:20.569Z,98809.34
2018-09-02T14:52:32.903Z,98807.86
2018-09-02T14:54:45.280Z,98810.10
2018-09-02T14:56:57.526Z,98808.79
2018-09-02T14:59:09.799Z,98801.28
2018-09-02T15:01:22.415Z,98798.78
2018-09-02T15:03:34.675Z,98801.50
2018-09-02T15:05:47.146Z,98792.32
2018-09-02T15:07:59.444Z,98792.45
2018-09-02T15:10:11.759Z,98793.06
2018-09-02T15:12:24.019Z,98797.34
2018-09-02T15:14:36.288Z,98802.72
2018-09-02T15:16:48.975Z,98800.31
2018-09-02T15:19:01.285Z,98807.83
2018-09-02T15:21:13.663Z,98802.72
2018-09-02T15:23:25.867Z,98804.25
2018-09-02T15:25:38.178Z,98797.59
2018-09-02T15:27:50.779Z,98798.43
2018-09-02T15:30:03.138Z,98798.69
2018-09-02T15:32:15.385Z,98805.47
2018-09-02T15:34:27.695Z,98807.38
2018-09-02T15:36:39.959Z,98803.93
2018-09-02T15:38:52.245Z,98796.52
2018-09-02T15:41:04.641Z,98799.91
2018-09-02T15:43:16.952Z,98800.64
2018-09-02T15:45:29.205Z,98797.05
2018-09-02T15:47:41.503Z,98789.41
2018-09-02T15:49:53.813Z,98791.94
2018-09-02T15:52:06.120Z,98788.20
2018-09-02T15:54:18.354Z,98792.77
2018-09-02T15:56:30.732Z,98782.98
2018-09-02T15:58:42.991Z,98777.97
2018-09-02T16:00:55.402Z,98782.37
2018-09-02T16:03:07.592Z,98782.28
2018-09-02T16:05:19.987Z,98780.27
2018-09-02T16:07:32.603Z,98778.95
2018-09-02T16:09:44.868Z,98774.06
2018-09-02T16:11:57.168Z,98776.11
2018-09-02T16:14:09.987Z,98773.36
2018-09-02T16:16:22.299Z,98779.08
2018-09-02T16:18:34.654Z,98775.72
2018-09-02T16:20:46.973Z,98779.91
2018-09-02T16:22:59.251Z,98780.62
2018-09-02T16:25:11.531Z,98778.12
2018-09-02T16:27:23.788Z,98774.55
2018-09-02T16:29:36.041Z,98772.88
2018-09-02T16:31:48.275Z,98779.05
2018-09-02T16:34:00.495Z,98776.20
2018-09-02T16:36:12.709Z,98777.13
2018-09-02T16:38:24.971Z,98774.52
2018-09-02T16:40:37.214Z,98773.11
2018-09-02T16:42:49.603Z,98771.31
2018-09-02T16:45:01.940Z,98774.42
2018-09-02T16:47:14.227Z,98774.90
2018-09-02T16:49:26.489Z,98766.55
2018-09-02T16:51:38.720Z,98770.58
2018-09-02T16:53:51.017Z,98760.41
2018-09-02T16:56:03.282Z,98763.74
2018-09-02T16:58:15.600Z,98762.81
2018-09-02T17:00:27.838Z,98764.86
2018-09-02T17:02:40.177Z,98764.41
2018-09-02T17:04:55.495Z,98760.83
2018-09-02T17:07:07.745Z,98760.00
2018-09-02T17:09:20.040Z,98755.68
2018-09-02T17:11:32.343Z,98756.99
2018-09-02T17:13:44.547Z,98751.84
2018-09-02T17:15:56.851Z,98751.23
2018-09-02T17:18:09.315Z,98744.91
2018-09-02T17:20:40.533Z,98745.64
2018-09-02T17:22:56.950Z,98747.31
2018-09-02T17:25:09.376Z,98748.14
2018-09-02T17:27:21.658Z,98748.97
2018-09-02T17:29:33.972Z,98751.11
2018-09-02T17:31:46.222Z,98751.02
2018-09-02T17:33:58.454Z,98749.61
2018-09-02T17:36:10.736Z,98743.15
2018-09-02T17:38:23.134Z,98740.75
2018-09-02T17:40:35.358Z,98740.75
2018-09-02T17:42:47.671Z,98744.69
2018-09-02T17:44:59.951Z,98738.61
2018-09-02T17:47:12.249Z,98733.37
2018-09-02T17:49:24.500Z,98739.09
2018-09-02T17:51:36.771Z,98737.53
2018-09-02T17:53:49.020Z,98737.53
2018-09-02T17:56:01.288Z,98738.01
2018-09-02T17:58:13.530Z,98733.69
2018-09-02T18:00:41.462Z,98734.78
2018-09-02T18:02:53.738Z,98736.57
2018-09-02T18:05:06.130Z,98743.95
2018-09-02T18:07:18.776Z,98741.08
2018-09-02T18:09:31.063Z,98739.29
2018-09-02T18:11:43.307Z,98739.41
2018-09-02T18:13:55.604Z,98736.41
2018-09-02T18:16:08.670Z,98736.54
2018-09-02T18:18:20.952Z,98739.03
2018-09-02T18:20:33.297Z,98743.92
2018-09-02T18:22:45.598Z,98744.28
2018-09-02T18:24:58.020Z,98747.86
2018-09-02T18:27:10.921Z,98742.13
2018-09-02T18:29:23.581Z,98743.92
2018-09-02T18:31:35.993Z,98751.44
2018-09-02T18:33:48.480Z,98749.39
2018-09-02T18:36:01.086Z,98751.18
2018-09-02T18:38:13.706Z,98749.27
2018-09-02T18:40:26.025Z,98749.97
2018-09-02T18:42:38.629Z,98754.95
2018-09-02T18:44:50.987Z,98757.95
2018-09-02T18:47:03.315Z,98754.02
2018-09-02T18:49:15.963Z,98757.70
2018-09-02T18:51:28.516Z,98763.42
2018-09-02T18:53:41.062Z,98763.29
2018-09-02T18:55:53.946Z,98769.02
2018-09-02T18:58:06.562Z,98768.18
2018-09-02T19:00:18.907Z,98764.25
2018-09-02T19:02:31.482Z,98772.37
2018-09-02T19:04:43.763Z,98771.06
2018-09-02T19:06:56.107Z,98763.20
2018-09-02T19:09:08.851Z,98772.37
2018-09-02T19:11:21.189Z,98763.29
2018-09-02T19:13:33.751Z,98761.27
2018-09-02T19:15:46.121Z,98767.92
2018-09-02T19:17:58.562Z,98767.56
2018-09-02T19:20:11.034Z,98772.45
2018-09-02T19:22:23.376Z,98769.09
2018-09-02T19:24:35.841Z,98770.06
2018-09-02T19:26:48.277Z,98771.37
2018-09-02T19:29:00.798Z,98767.79
2018-09-02T19:31:13.066Z,98765.39
2018-09-02T19:33:25.477Z,98761.94
2018-09-02T19:35:38.011Z,98760.98
2018-09-02T19:37:50.343Z,98755.87
2018-09-02T19:40:02.749Z,98748.97
2018-09-02T19:42:15.171Z,98745.95
2018-09-02T19:44:27.486Z,98744.65
2018-09-02T19:46:39.960Z,98740.72
2018-09-02T19:48:52.517Z,98745.95
2018-09-02T19:51:05.140Z,98745.13
2018-09-02T19:53:17.489Z,98742.16
2018-09-02T19:55:29.751Z,98747.75
2018-09-02T19:57:42.043Z,98746.70
2018-09-02T19:59:54.320Z,98738.71
2018-09-02T20:02:06.654Z,98741.33
2018-09-02T20:04:18.992Z,98742.55
2018-09-02T20:06:31.212Z,98739.31
2018-09-02T20:08:43.467Z,98734.56
2018-09-02T20:10:55.734Z,98738.39
2018-09-02T20:13:08.025Z,98732.67
2018-09-02T20:15:20.371Z,98738.75
2018-09-02T20:17:32.621Z,98729.92
2018-09-02T20:19:44.995Z,98727.78
2018-09-02T20:21:57.378Z,98727.69
2018-09-02T20:24:09.638Z,98723.38
2018-09-02T20:26:21.870Z,98720.41
2018-09-02T20:28:34.110Z,98719.92
2018-09-02T20:30:46.456Z,98721.49
2018-09-02T20:32:58.768Z,98715.64
2018-09-02T20:35:11.112Z,98721.27
2018-09-02T20:37:23.426Z,98721.49
2018-09-02T20:39:35.708Z,98725.42
2018-09-02T20:41:47.975Z,98720.27
2018-09-02T20:44:00.221Z,98719.83
2018-09-02T20:46:12.447Z,98715.99
2018-09-02T20:48:24.668Z,98716.47
2018-09-02T20:50:36.935Z,98717.43
2018-09-02T20:52:49.197Z,98706.34
2018-09-02T20:55:01.372Z,98716.47
2018-09-02T20:57:13.597Z,98705.51
2018-09-02T20:59:25.938Z,98705.03
2018-09-02T21:01:38.179Z,98711.45
2018-09-02T21:03:50.450Z,98713.72
2018-09-02T21:06:02.739Z,98711.58
2018-09-02T21:08:15.078Z,98718.00
2018-09-02T21:10:27.264Z,98719.67
2018-09-02T21:12:39.552Z,98718.13
2018-09-02T21:14:51.800Z,98716.70
2018-09-02T21:17:04.074Z,98715.03
2018-09-02T21:19:16.371Z,98712.41
2018-09-02T21:21:28.590Z,98709.31
2018-09-02T21:23:40.821Z,98711.67
2018-09-02T21:25:53.053Z,98711.10
2018-09-02T21:28:05.335Z,98710.75
2018-09-02T21:30:17.598Z,98716.56
2018-09-02T21:32:29.829Z,98711.07
2018-09-02T21:34:42.167Z,98711.20
2018-09-02T21:36:54.478Z,98709.89
2018-09-02T21:39:07.862Z,98714.17
2018-09-02T21:41:20.202Z,98705.73
2018-09-02T21:43:32.441Z,98701.67
2018-09-02T21:45:44.808Z,98709.44
2018-09-02T21:47:57.019Z,98709.44
2018-09-02T21:50:10.135Z,98705.51
2018-09-02T21:52:22.332Z,98698.00
2018-09-02T21:54:34.626Z,98691.45
2018-09-02T21:56:46.877Z,98693.34
2018-09-02T21:58:59.119Z,98698.22
2018-09-02T22:01:11.343Z,98688.32
2018-09-02T22:03:23.564Z,98696.31
2018-09-02T22:05:35.902Z,98705.22
2018-09-02T22:07:48.145Z,98704.52
2018-09-02T22:10:00.397Z,98701.90
2018-09-02T22:12:12.697Z,98699.98
2018-09-02T22:14:24.895Z,98703.56
2018-09-02T22:16:37.088Z,98705.00
2018-09-02T22:18:49.315Z,98700.69
2018-09-02T22:21:01.516Z,98696.75
2018-09-02T22:23:13.737Z,98694.88
2018-09-02T22:25:25.994Z,98694.13
2018-09-02T22:27:38.296Z,98691.03
2018-09-02T22:29:50.524Z,98685.34
2018-09-02T22:32:02.716Z,98684.87
2018-09-02T22:34:14.980Z,98687.27
2018-09-02T22:36:27.196Z,98686.18
2018-09-02T22:38:39.447Z,98683.95
2018-09-02T22:40:51.704Z,98677.48
2018-09-02T22:43:03.938Z,98676.53
2018-09-02T22:45:16.150Z,98672.02
2018-09-02T22:47:28.374Z,98663.69
2018-09-02T22:49:40.644Z,98661.20
2018-09-02T22:51:53.015Z,98657.84
2018-09-02T22:54:05.267Z,98653.20
2018-09-02T22:56:17.486Z,98654.87
2018-09-02T22:58:29.705Z,98645.70
2018-09-02T23:00:41.915Z,98634.14
2018-09-02T23:02:54.244Z,98635.92
2018-09-02T23:05:06.495Z,98626.85
2018-09-02T23:07:18.650Z,98631.04
2018-09-02T23:09:30.898Z,98628.77
2018-09-02T23:11:43.066Z,98623.30
2018-09-02T23:13:55.305Z,98618.30
2018-09-02T23:16:07.541Z,98605.67
2018-09-02T23:18:19.736Z,98608.88
2018-09-02T23:20:32.050Z,98603.16
2018-09-02T23:22:44.391Z,98601.27
2018-09-02T23:24:56.641Z,98595.91
2018-09-02T23:27:08.851Z,98586.84
2018-09-02T23:29:21.096Z,98580.28
2018-09-02T23:31:33.330Z,98581.24
2018-09-02T23:33:45.534Z,98580.41
2018-09-02T23:35:57.746Z,98577.45
2018-09-02T23:38:09.969Z,98580.41
2018-09-02T23:40:22.214Z,98572.08
2018-09-02T23:42:34.442Z,98560.30
2018-09-02T23:44:46.687Z,98560.30
2018-09-02T23:46:58.969Z,98561.34
2018-09-02T23:49:11.154Z,98563.04
2018-09-02T23:51:23.370Z,98552.91
2018-09-02T23:53:35.587Z,98548.38
2018-09-02T23:55:47.750Z,98550.75
2018-09-02T23:58:00.077Z,98541.81
